^^
Grace C. Lehan Memorial Weather Station Historical Data
Daily Summary for February 17, 2021 Units:  English    Metric   Both
Daily Weekly Monthly Yearly
  High: Low: Average:
Temperature: 74.5 °F 66.3 °F 69.4 °F
Dew Point: 68.9 °F 63.1 °F 65.7 °F
Humidity: 93% 80.8% 88%
Wind Speed: 2.2mph 0mph 0.2mph
Wind Gust: 7mph - -
Wind- - ENE
Pressure: 30.28 in 30.11 in -
Precipitation: 0.00 in    
 
 
Tabular Data for February 17, 2021
Time Temperature Dew Point Pressure Wind Wind Speed Wind Gust Humidity Rainfall Rate (Hourly) solar
00:00 68.2 °F 64.5 °F 30.26 in Calm   7 mph 88% 0.00 in 0 W/m2
00:09 68.1 °F 64.4 °F 30.25 in ENE 0.3 mph 3 mph 88% 0.00 in 0 W/m2
00:14 68 °F 64.4 °F 30.25 in ENE 0.5 mph 3 mph 88% 0.00 in 0 W/m2
00:19 68 °F 64.3 °F 30.25 in ENE 0.6 mph 4 mph 88% 0.00 in 0 W/m2
00:24 67.9 °F 64.2 °F 30.25 in ENE 1 mph 5 mph 88% 0.00 in 0 W/m2
00:29 67.9 °F 64.2 °F 30.25 in ENE 0.3 mph 5 mph 88% 0.00 in 0 W/m2
00:34 67.9 °F 64.2 °F 30.25 in ENE 0.5 mph 5 mph 88% 0.00 in 0 W/m2
00:39 67.9 °F 64.2 °F 30.25 in ENE 0.7 mph 4 mph 88% 0.00 in 0 W/m2
00:44 67.9 °F 64.2 °F 30.25 in ENE 0.1 mph 4 mph 88% 0.00 in 0 W/m2
00:49 67.8 °F 64.1 °F 30.25 in ENE 0.5 mph 4 mph 88% 0.00 in 0 W/m2
00:54 67.8 °F 64.1 °F 30.25 in ENE 0.6 mph 4 mph 88% 0.00 in 0 W/m2
00:59 67.8 °F 64.1 °F 30.25 in ENE 0.8 mph 7 mph 88% 0.00 in 0 W/m2
01:04 67.7 °F 64 °F 30.25 in ENE 0.1 mph 7 mph 88% 0.00 in 0 W/m2
01:09 67.7 °F 64 °F 30.25 in ENE 0.6 mph 4 mph 88% 0.00 in 0 W/m2
01:14 67.7 °F 64 °F 30.25 in ENE 0.6 mph 4 mph 88% 0.00 in 0 W/m2
01:19 67.6 °F 63.9 °F 30.25 in ENE 0.6 mph 4 mph 88% 0.00 in 0 W/m2
01:24 67.6 °F 63.9 °F 30.25 in ENE 0.2 mph 4 mph 88% 0.00 in 0 W/m2
01:29 67.6 °F 63.9 °F 30.25 in ENE 0.8 mph 5 mph 88% 0.00 in 0 W/m2
01:34 67.5 °F 63.9 °F 30.25 in ENE 1.4 mph 7 mph 88% 0.00 in 0 W/m2
01:39 67.5 °F 63.8 °F 30.25 in ENE 0.1 mph 7 mph 88% 0.00 in 0 W/m2
01:44 67.5 °F 63.8 °F 30.25 in ENE 0.1 mph 7 mph 88% 0.00 in 0 W/m2
01:49 67.5 °F 63.8 °F 30.24 in ENE 0.4 mph 7 mph 88% 0.00 in 0 W/m2
01:54 67.5 °F 63.8 °F 30.24 in ENE 0.6 mph 7 mph 88% 0.00 in 0 W/m2
01:59 67.5 °F 63.8 °F 30.24 in ENE 0.6 mph 7 mph 88% 0.00 in 0 W/m2
02:04 67.5 °F 63.8 °F 30.24 in ENE 0.2 mph 7 mph 88% 0.00 in 0 W/m2
02:09 67.5 °F 64.1 °F 30.24 in ENE 0.5 mph 7 mph 88.7% 0.00 in 0 W/m2
02:14 67.5 °F 64.2 °F 30.24 in ENE 0.9 mph 7 mph 89% 0.00 in 0 W/m2
02:19 67.5 °F 64.1 °F 30.24 in ENE 1.9 mph 7 mph 88.9% 0.00 in 0 W/m2
02:24 67.5 °F 63.8 °F 30.24 in ENE 0.8 mph 7 mph 88% 0.00 in 0 W/m2
02:29 67.5 °F 64 °F 30.24 in ENE 0.6 mph 7 mph 88.6% 0.00 in 0 W/m2
02:34 67.4 °F 64.1 °F 30.24 in ENE 0.8 mph 7 mph 89% 0.00 in 0 W/m2
02:39 67.4 °F 64.1 °F 30.24 in ENE 0.1 mph 5 mph 89% 0.00 in 0 W/m2
02:44 67.4 °F 64 °F 30.24 in ENE 1.2 mph 5 mph 88.8% 0.00 in 0 W/m2
02:49 67.3 °F 63.6 °F 30.24 in ENE 0.6 mph 5 mph 88% 0.00 in 0 W/m2
02:54 67.2 °F 63.5 °F 30.24 in ENE 1.8 mph 6 mph 88% 0.00 in 0 W/m2
02:59 67.1 °F 63.5 °F 30.24 in ENE 1.7 mph 6 mph 88% 0.00 in 0 W/m2
03:04 67.1 °F 63.4 °F 30.24 in NE 1.5 mph 7 mph 88% 0.00 in 0 W/m2
03:09 67 °F 63.3 °F 30.24 in NE 0.8 mph 7 mph 88% 0.00 in 0 W/m2
03:14 67 °F 63.3 °F 30.23 in ENE 1 mph 7 mph 88% 0.00 in 0 W/m2
03:19 67 °F 63.6 °F 30.23 in NE 1.3 mph 7 mph 88.9% 0.00 in 0 W/m2
03:24 66.9 °F 63.4 °F 30.23 in NE 0.8 mph 7 mph 88.4% 0.00 in 0 W/m2
03:29 66.9 °F 63.5 °F 30.24 in NE 0.3 mph 7 mph 89% 0.00 in 0 W/m2
03:34 66.8 °F 63.5 °F 30.23 in NE 0.1 mph 7 mph 89% 0.00 in 0 W/m2
03:39 66.8 °F 63.5 °F 30.23 in Calm   2 mph 89% 0.00 in 0 W/m2
03:44 66.8 °F 63.5 °F 30.24 in NE 0.2 mph 2 mph 89% 0.00 in 0 W/m2
03:49 66.8 °F 63.5 °F 30.23 in Calm   2 mph 89% 0.00 in 0 W/m2
03:54 66.8 °F 63.4 °F 30.23 in Calm   2 mph 89% 0.00 in 0 W/m2
03:59 66.8 °F 63.4 °F 30.23 in NE 0.1 mph 3 mph 89% 0.00 in 0 W/m2
04:00 66.8 °F 63.5 °F 30.23 in Calm   3 mph 89% 0.00 in 0 W/m2
04:09 66.7 °F 63.4 °F 30.24 in Calm     89% 0.00 in 0 W/m2
04:14 66.7 °F 63.4 °F 30.24 in Calm     89% 0.00 in 0 W/m2
04:19 66.7 °F 63.4 °F 30.24 in NE 0.1 mph 2 mph 89% 0.00 in 0 W/m2
04:24 66.7 °F 63.3 °F 30.24 in Calm   2 mph 89% 0.00 in 0 W/m2
04:29 66.7 °F 63.3 °F 30.24 in Calm   2 mph 89% 0.00 in 0 W/m2
04:34 66.6 °F 63.3 °F 30.24 in Calm   2 mph 89% 0.00 in 0 W/m2
04:39 66.6 °F 63.3 °F 30.24 in Calm     89% 0.00 in 0 W/m2
04:44 66.6 °F 63.3 °F 30.24 in Calm     89% 0.00 in 0 W/m2
04:49 66.6 °F 63.3 °F 30.24 in Calm     89% 0.00 in 0 W/m2
04:54 66.6 °F 63.3 °F 30.24 in Calm     89% 0.00 in 0 W/m2
04:59 66.6 °F 63.2 °F 30.24 in Calm     89% 0.00 in 0 W/m2
05:04 66.6 °F 63.2 °F 30.24 in Calm     89% 0.00 in 0 W/m2
05:09 66.5 °F 63.2 °F 30.24 in NE 0.1 mph 2 mph 89% 0.00 in 0 W/m2
05:14 66.5 °F 63.2 °F 30.24 in NE 0.3 mph 4 mph 89% 0.00 in 0 W/m2
05:19 66.5 °F 63.2 °F 30.24 in NE 0.1 mph 4 mph 89% 0.00 in 0 W/m2
05:24 66.5 °F 63.2 °F 30.24 in NE 0.5 mph 6 mph 89% 0.00 in 0 W/m2
05:29 66.5 °F 63.2 °F 30.24 in ENE 0.6 mph 6 mph 89% 0.00 in 0 W/m2
05:34 66.5 °F 63.2 °F 30.25 in ENE 0.1 mph 6 mph 89% 0.00 in 0 W/m2
05:39 66.5 °F 63.2 °F 30.25 in Calm   3 mph 89% 0.00 in 0 W/m2
05:44 66.5 °F 63.2 °F 30.25 in ENE 1 mph 5 mph 89% 0.00 in 0 W/m2
05:49 66.5 °F 63.2 °F 30.25 in ENE 0.4 mph 5 mph 89% 0.00 in 0 W/m2
05:54 66.4 °F 63.1 °F 30.25 in ENE 0.3 mph 5 mph 89% 0.00 in 0 W/m2
05:59 66.4 °F 63.1 °F 30.26 in ENE 1.1 mph 5 mph 89% 0.00 in 0 W/m2
06:04 66.4 °F 63.1 °F 30.26 in ENE 0.2 mph 5 mph 89% 0.00 in 0 W/m2
06:09 66.4 °F 63.1 °F 30.26 in ENE 0.6 mph 5 mph 89% 0.00 in 0 W/m2
06:14 66.4 °F 63.1 °F 30.26 in ENE 0.9 mph 5 mph 89% 0.00 in 0 W/m2
06:19 66.4 °F 63.1 °F 30.27 in ENE 0.5 mph 5 mph 89% 0.00 in 0 W/m2
06:30 66.4 °F 63.1 °F 30.26 in Calm   5 mph 89% 0.00 in 0 W/m2
07:00 66.4 °F 63.4 °F 30.27 in Calm   5 mph 90% 0.00 in 0 W/m2
07:30 66.3 °F 63.3 °F 30.27 in Calm   6 mph 90% 0.00 in 6 W/m2
08:04 66.6 °F 63.2 °F 30.28 in Calm     89% 0.00 in 25 W/m2
08:09 66.6 °F 63.3 °F 30.28 in Calm     89% 0.00 in 25 W/m2
08:14 66.7 °F 63.3 °F 30.28 in Calm   1 mph 89% 0.00 in 30 W/m2
08:19 66.7 °F 63.4 °F 30.28 in NE 0.1 mph 2 mph 89.1% 0.00 in 44 W/m2
08:24 66.8 °F 63.6 °F 30.28 in NE 0.1 mph 3 mph 89.4% 0.00 in 63 W/m2
08:29 66.9 °F 63.5 °F 30.28 in Calm   3 mph 89% 0.00 in 58 W/m2
08:34 66.9 °F 63.6 °F 30.28 in NE 0.3 mph 4 mph 89% 0.00 in 56 W/m2
08:39 67 °F 63.6 °F 30.28 in East 0.1 mph 5 mph 88.9% 0.00 in 42 W/m2
08:44 67 °F 63.3 °F 30.28 in Calm   5 mph 88% 0.00 in 28 W/m2
08:49 67 °F 63.3 °F 30.28 in ENE 0.3 mph 5 mph 88% 0.00 in 32 W/m2
08:54 67 °F 63.4 °F 30.28 in ENE 0.2 mph 5 mph 88.2% 0.00 in 39 W/m2
08:59 67 °F 63.4 °F 30.28 in ENE 0.4 mph 5 mph 88% 0.00 in 39 W/m2
09:04 67 °F 63.3 °F 30.28 in ENE 0.1 mph 5 mph 88% 0.00 in 35 W/m2
09:09 67 °F 63.4 °F 30.28 in Calm   5 mph 88.1% 0.00 in 40 W/m2
09:14 67.1 °F 63.6 °F 30.28 in Calm   5 mph 88.4% 0.00 in 56 W/m2
09:19 67.1 °F 63.4 °F 30.27 in ENE 0.2 mph 5 mph 88% 0.00 in 62 W/m2
09:24 67.2 °F 63.6 °F 30.27 in Calm   5 mph 88.2% 0.00 in 62 W/m2
09:29 67.2 °F 63.6 °F 30.27 in ENE 0.2 mph 5 mph 88% 0.00 in 65 W/m2
09:34 67.3 °F 63.8 °F 30.27 in Calm   5 mph 88.5% 0.00 in 60 W/m2
09:39 67.4 °F 63.7 °F 30.27 in NNW 0.3 mph 4 mph 88% 0.00 in 51 W/m2
09:44 67.4 °F 63.8 °F 30.27 in Calm   4 mph 88% 0.00 in 56 W/m2
09:49 67.4 °F 63.7 °F 30.27 in Calm   4 mph 88% 0.00 in 56 W/m2
09:54 67.4 °F 63.6 °F 30.27 in North 0.6 mph 4 mph 87.6% 0.00 in 54 W/m2
09:59 67.4 °F 63.7 °F 30.27 in Calm   4 mph 88% 0.00 in 63 W/m2
10:04 67.4 °F 63.8 °F 30.27 in North 0.3 mph 4 mph 88% 0.00 in 86 W/m2
10:09 67.4 °F 63.7 °F 30.27 in Calm   3 mph 88% 0.00 in 95 W/m2
10:14 67.5 °F 63.8 °F 30.26 in NNE 0.3 mph 3 mph 88% 0.00 in 91 W/m2
10:19 67.5 °F 63.8 °F 30.26 in NE 0.8 mph 4 mph 88% 0.00 in 88 W/m2
10:24 67.5 °F 63.8 °F 30.26 in NE 0.7 mph 7 mph 88% 0.00 in 91 W/m2
10:29 67.6 °F 63.9 °F 30.26 in NE 0.3 mph 7 mph 88% 0.00 in 121 W/m2
10:34 67.7 °F 64 °F 30.26 in ENE 0.3 mph 7 mph 88% 0.00 in 134 W/m2
10:39 67.9 °F 64.2 °F 30.26 in NE 0.7 mph 7 mph 88% 0.00 in 127 W/m2
10:44 68 °F 64.3 °F 30.26 in NNE 0.1 mph 7 mph 88% 0.00 in 127 W/m2
10:49 68.1 °F 64.5 °F 30.26 in NNW 0.4 mph 7 mph 88% 0.00 in 111 W/m2
10:54 68.3 °F 64.5 °F 30.26 in North 0.2 mph 7 mph 87.8% 0.00 in 97 W/m2
10:59 68.3 °F 64.5 °F 30.26 in Calm   7 mph 87.5% 0.00 in 100 W/m2
11:04 68.5 °F 64.8 °F 30.25 in Calm   7 mph 87.9% 0.00 in 97 W/m2
11:09 68.6 °F 64.6 °F 30.25 in NNE 0.4 mph 4 mph 87% 0.00 in 97 W/m2
11:14 68.6 °F 64.6 °F 30.26 in ENE 0.7 mph 4 mph 87% 0.00 in 127 W/m2
11:19 68.8 °F 65.1 °F 30.26 in NW 0.1 mph 4 mph 88% 0.00 in 142 W/m2
11:24 69.1 °F 65.3 °F 30.25 in NNW 0.8 mph 5 mph 87.9% 0.00 in 171 W/m2
11:29 69.3 °F 65.2 °F 30.25 in NNE 0.4 mph 5 mph 86.9% 0.00 in 193 W/m2
11:34 69.4 °F 65.3 °F 30.25 in NNE 0.1 mph 5 mph 86.9% 0.00 in 200 W/m2
11:39 69.6 °F 65.6 °F 30.25 in NNE 0.4 mph 4 mph 86.9% 0.00 in 192 W/m2
11:44 69.8 °F 65.5 °F 30.25 in NE 0.5 mph 5 mph 86% 0.00 in 206 W/m2
11:49 70.1 °F 66 °F 30.25 in ENE 2.2 mph 6 mph 86.7% 0.00 in 202 W/m2
11:54 70.4 °F 65.9 °F 30.24 in ENE 0.1 mph 6 mph 85.8% 0.00 in 188 W/m2
11:59 70.6 °F 66.1 °F 30.24 in East 0.2 mph 6 mph 85.6% 0.00 in 172 W/m2
12:09 70.8 °F 66.1 °F 30.24 in Calm     85.2% 0.00 in 130 W/m2
12:14 70.8 °F 66.1 °F 30.24 in Calm   2 mph 85% 0.00 in 125 W/m2
12:19 70.9 °F 66.2 °F 30.24 in Calm   2 mph 85% 0.00 in 151 W/m2
12:24 71.1 °F 66.5 °F 30.25 in ENE 0.2 mph 3 mph 85.5% 0.00 in 151 W/m2
12:29 71.2 °F 66.4 °F 30.25 in ENE 0.1 mph 3 mph 84.7% 0.00 in 149 W/m2
12:34 71.4 °F 66.7 °F 30.24 in ENE 0.1 mph 3 mph 85% 0.00 in 171 W/m2
12:39 71.7 °F 66.9 °F 30.24 in ENE 0.2 mph 4 mph 84.9% 0.00 in 181 W/m2
12:44 71.8 °F 66.7 °F 30.24 in ENE 0.3 mph 5 mph 84% 0.00 in 156 W/m2
12:49 71.9 °F 66.8 °F 30.24 in ENE 0.2 mph 5 mph 84.1% 0.00 in 144 W/m2
12:54 72 °F 67 °F 30.24 in ENE 0.7 mph 6 mph 84.3% 0.00 in 135 W/m2
12:59 72.1 °F 67 °F 30.23 in Calm   6 mph 84% 0.00 in 163 W/m2
13:04 72.1 °F 66.9 °F 30.23 in Calm   6 mph 83.8% 0.00 in 135 W/m2
13:09 72.1 °F 67 °F 30.23 in ENE 0.1 mph 4 mph 84% 0.00 in 120 W/m2
13:14 72.2 °F 67.1 °F 30.23 in Calm   4 mph 84% 0.00 in 120 W/m2
13:19 72.1 °F 66.9 °F 30.23 in ENE 0.5 mph 4 mph 83.7% 0.00 in 142 W/m2
13:24 72.2 °F 67 °F 30.23 in ENE 0.8 mph 6 mph 83.8% 0.00 in 287 W/m2
13:29 72.3 °F 67.2 °F 30.23 in Calm   6 mph 84% 0.00 in 313 W/m2
13:34 72.5 °F 67.5 °F 30.22 in Calm   6 mph 84.2% 0.00 in 197 W/m2
13:39 72.8 °F 67.6 °F 30.22 in Calm     83.8% 0.00 in 156 W/m2
13:44 73 °F 67.9 °F 30.22 in ENE 0.1 mph 2 mph 84% 0.00 in 146 W/m2
13:49 73 °F 67.6 °F 30.22 in NNE 1.1 mph 6 mph 83.2% 0.00 in 171 W/m2
13:54 73.1 °F 67.7 °F 30.21 in Calm   6 mph 83.3% 0.00 in 193 W/m2
13:59 73.1 °F 67.4 °F 30.21 in Calm   6 mph 82.5% 0.00 in 185 W/m2
14:04 73.1 °F 67.6 °F 30.21 in NE 0.4 mph 6 mph 83% 0.00 in 149 W/m2
14:09 73.1 °F 67.6 °F 30.21 in WNW 0.7 mph 6 mph 83% 0.00 in 120 W/m2
14:14 73.1 °F 67.7 °F 30.20 in WNW 0.1 mph 6 mph 83% 0.00 in 121 W/m2
14:19 73.2 °F 67.7 °F 30.20 in WNW 0.1 mph 6 mph 83% 0.00 in 172 W/m2
14:24 73.3 °F 67.7 °F 30.20 in Calm   6 mph 82.6% 0.00 in 200 W/m2
14:29 73.3 °F 67.9 °F 30.19 in NNE 0.1 mph 6 mph 83.1% 0.00 in 214 W/m2
14:34 73.5 °F 68.2 °F 30.19 in NE 0.2 mph 6 mph 83.3% 0.00 in 193 W/m2
14:39 73.7 °F 68.2 °F 30.19 in Calm   3 mph 83% 0.00 in 178 W/m2
14:44 73.9 °F 68.2 °F 30.19 in NE 0.1 mph 4 mph 82.5% 0.00 in 193 W/m2
14:49 74.1 °F 68.4 °F 30.19 in Calm   4 mph 82.5% 0.00 in 197 W/m2
14:54 74.3 °F 68.7 °F 30.19 in NNE 0.2 mph 4 mph 82.7% 0.00 in 156 W/m2
14:59 74.4 °F 68.3 °F 30.19 in ENE 0.3 mph 4 mph 81.3% 0.00 in 141 W/m2
15:04 74.3 °F 68 °F 30.19 in Calm   4 mph 80.8% 0.00 in 128 W/m2
15:09 74.3 °F 68.4 °F 30.19 in NE 0.1 mph 3 mph 81.8% 0.00 in 174 W/m2
15:14 74.3 °F 68.4 °F 30.19 in NNE 0.1 mph 3 mph 81.9% 0.00 in 172 W/m2
15:19 74.4 °F 68.6 °F 30.19 in NNE 0.3 mph 4 mph 82.1% 0.00 in 146 W/m2
15:24 74.5 °F 68.6 °F 30.19 in NE 0.1 mph 4 mph 82% 0.00 in 130 W/m2
15:29 74.4 °F 68.5 °F 30.18 in NNE 0.3 mph 5 mph 81.6% 0.00 in 97 W/m2
15:34 74.4 °F 68.2 °F 30.19 in East 0.8 mph 5 mph 81.1% 0.00 in 74 W/m2
15:39 74.3 °F 68.4 °F 30.19 in Calm   3 mph 81.9% 0.00 in 77 W/m2
15:44 74.2 °F 68.4 °F 30.19 in East 0.3 mph 3 mph 82% 0.00 in 74 W/m2
15:49 74.2 °F 68.5 °F 30.18 in ENE 0.2 mph 3 mph 82.3% 0.00 in 79 W/m2
15:54 74.1 °F 68.5 °F 30.18 in ENE 0.5 mph 5 mph 82.6% 0.00 in 69 W/m2
15:59 74 °F 68.2 °F 30.18 in ENE 0.8 mph 5 mph 82% 0.00 in 58 W/m2
16:00 74 °F 68.2 °F 30.18 in Calm   5 mph 82% 0.00 in 51 W/m2
16:09 74 °F 68.5 °F 30.18 in Calm     83% 0.00 in 46 W/m2
16:14 73.9 °F 68.5 °F 30.18 in ENE 0.1 mph 1 mph 83.3% 0.00 in 47 W/m2
16:19 73.9 °F 68.4 °F 30.18 in ENE 0.1 mph 2 mph 83.1% 0.00 in 51 W/m2
16:24 73.8 °F 68.3 °F 30.18 in ENE 0.2 mph 3 mph 83% 0.00 in 53 W/m2
16:29 73.7 °F 68.3 °F 30.18 in ENE 0.3 mph 3 mph 83.3% 0.00 in 42 W/m2
16:34 73.7 °F 68.6 °F 30.18 in ENE 0.2 mph 3 mph 84% 0.00 in 42 W/m2
16:39 73.7 °F 68.8 °F 30.18 in ENE 0.1 mph 3 mph 84.8% 0.00 in 33 W/m2
16:44 73.5 °F 68.7 °F 30.17 in ENE 0.4 mph 4 mph 85% 0.00 in 30 W/m2
16:49 73.3 °F 68.8 °F 30.17 in ENE 0.6 mph 4 mph 85.6% 0.00 in 28 W/m2
16:54 73.1 °F 68.7 °F 30.17 in Calm   4 mph 86% 0.00 in 23 W/m2
16:59 73 °F 68.9 °F 30.17 in Calm   4 mph 86.9% 0.00 in 23 W/m2
17:04 72.8 °F 68.8 °F 30.17 in ENE 0.6 mph 5 mph 87% 0.00 in 21 W/m2
17:09 72.7 °F 68.6 °F 30.16 in Calm   5 mph 87% 0.00 in 21 W/m2
17:14 72.6 °F 68.6 °F 30.16 in ENE 0.2 mph 5 mph 87.3% 0.00 in 19 W/m2
17:19 72.5 °F 68.8 °F 30.16 in Calm   5 mph 88% 0.00 in 18 W/m2
17:24 72.3 °F 68.6 °F 30.16 in North 0.5 mph 5 mph 88% 0.00 in 12 W/m2
17:29 72.2 °F 68.4 °F 30.17 in Calm   5 mph 88% 0.00 in 7 W/m2
17:34 72.1 °F 68.7 °F 30.17 in Calm   5 mph 89% 0.00 in 11 W/m2
17:39 72 °F 68.6 °F 30.17 in Calm     89% 0.00 in 11 W/m2
17:44 71.9 °F 68.5 °F 30.16 in NNE 0.1 mph 2 mph 89% 0.00 in 11 W/m2
17:49 71.9 °F 68.6 °F 30.16 in NNE 0.2 mph 3 mph 89.4% 0.00 in 9 W/m2
17:54 71.7 °F 68.3 °F 30.17 in Calm   3 mph 89.1% 0.00 in 7 W/m2
17:59 71.6 °F 68.3 °F 30.17 in Calm   3 mph 89.4% 0.00 in 11 W/m2
18:04 71.5 °F 68.4 °F 30.17 in North 0.1 mph 4 mph 90% 0.00 in 11 W/m2
18:09 71.5 °F 68.4 °F 30.17 in Calm   4 mph 90% 0.00 in 5 W/m2
18:14 71.3 °F 68.3 °F 30.16 in Calm   4 mph 90% 0.00 in 0 W/m2
18:19 71.2 °F 68.3 °F 30.16 in Calm   4 mph 90.5% 0.00 in 7 W/m2
18:24 71.1 °F 68.3 °F 30.16 in North 0.1 mph 4 mph 91% 0.00 in 9 W/m2
18:29 70.9 °F 68.2 °F 30.16 in NNE 0.5 mph 4 mph 91% 0.00 in 9 W/m2
18:34 70.8 °F 68 °F 30.16 in North 0.5 mph 7 mph 91% 0.00 in 9 W/m2
18:39 70.6 °F 68 °F 30.16 in Calm   7 mph 91.6% 0.00 in 9 W/m2
18:44 70.5 °F 68 °F 30.15 in Calm   7 mph 92% 0.00 in 5 W/m2
18:49 70.4 °F 68 °F 30.15 in Calm   7 mph 92% 0.00 in 0 W/m2
18:54 70.3 °F 67.9 °F 30.15 in Calm   7 mph 92% 0.00 in 0 W/m2
18:59 70.2 °F 67.8 °F 30.15 in Calm   7 mph 92% 0.00 in 0 W/m2
19:04 70.1 °F 67.7 °F 30.15 in Calm   7 mph 92% 0.00 in 0 W/m2
19:09 70.1 °F 67.7 °F 30.15 in Calm     92.2% 0.00 in 0 W/m2
19:14 70 °F 67.9 °F 30.15 in Calm     93% 0.00 in 0 W/m2
19:19 69.9 °F 67.7 °F 30.15 in North 0.1 mph 3 mph 92.7% 0.00 in 0 W/m2
19:24 69.8 °F 67.7 °F 30.15 in Calm   3 mph 93% 0.00 in 0 W/m2
19:29 69.8 °F 67.7 °F 30.15 in North 0.1 mph 3 mph 93% 0.00 in 0 W/m2
19:34 69.8 °F 67.7 °F 30.15 in Calm   3 mph 93% 0.00 in 0 W/m2
19:39 69.8 °F 67.7 °F 30.15 in Calm   2 mph 93% 0.00 in 0 W/m2
19:44 69.7 °F 67.6 °F 30.15 in Calm   2 mph 93% 0.00 in 0 W/m2
19:49 69.7 °F 67.6 °F 30.15 in Calm   2 mph 93% 0.00 in 0 W/m2
19:54 69.6 °F 67.5 °F 30.15 in Calm   2 mph 93% 0.00 in 0 W/m2
19:59 69.5 °F 67.4 °F 30.15 in Calm   2 mph 93% 0.00 in 0 W/m2
20:09 69.5 °F 67.4 °F 30.15 in North 0.4 mph 5 mph 93% 0.00 in 0 W/m2
20:14 69.5 °F 67.4 °F 30.15 in Calm   5 mph 93% 0.00 in 0 W/m2
20:19 69.4 °F 67.3 °F 30.15 in Calm   5 mph 93% 0.00 in 0 W/m2
20:24 69.4 °F 67.1 °F 30.15 in Calm   5 mph 92.3% 0.00 in 0 W/m2
20:29 69.4 °F 67 °F 30.15 in Calm   5 mph 92% 0.00 in 0 W/m2
20:34 69.5 °F 67 °F 30.15 in Calm   5 mph 92% 0.00 in 0 W/m2
20:39 69.4 °F 67 °F 30.15 in Calm   2 mph 92% 0.00 in 0 W/m2
20:44 69.4 °F 66.9 °F 30.15 in North 0.1 mph 4 mph 92% 0.00 in 0 W/m2
20:49 69.3 °F 66.8 °F 30.15 in Calm   4 mph 92% 0.00 in 0 W/m2
20:54 69.2 °F 66.8 °F 30.15 in Calm   4 mph 92% 0.00 in 0 W/m2
20:59 69.1 °F 66.7 °F 30.15 in Calm   4 mph 92% 0.00 in 0 W/m2
21:04 69 °F 66.6 °F 30.15 in Calm   4 mph 92% 0.00 in 0 W/m2
21:09 69 °F 66.6 °F 30.15 in Calm     92% 0.00 in 0 W/m2
21:14 69 °F 66.6 °F 30.15 in Calm     92% 0.00 in 0 W/m2
21:19 69 °F 66.8 °F 30.15 in Calm     92.6% 0.00 in 0 W/m2
21:24 69 °F 66.9 °F 30.15 in Calm     93% 0.00 in 0 W/m2
21:29 69 °F 66.9 °F 30.15 in Calm     93% 0.00 in 0 W/m2
21:34 69 °F 66.9 °F 30.15 in Calm     93% 0.00 in 0 W/m2
21:39 69 °F 66.9 °F 30.15 in Calm     93% 0.00 in 0 W/m2
21:44 69 °F 66.9 °F 30.15 in Calm     93% 0.00 in 0 W/m2
21:49 69 °F 66.9 °F 30.15 in Calm     93% 0.00 in 0 W/m2
21:54 69 °F 66.9 °F 30.15 in Calm     93% 0.00 in 0 W/m2
21:59 69 °F 66.9 °F 30.15 in Calm     93% 0.00 in 0 W/m2
22:04 69 °F 66.9 °F 30.15 in Calm     93% 0.00 in 0 W/m2
22:09 69 °F 66.9 °F 30.15 in Calm     93% 0.00 in 0 W/m2
22:14 69 °F 66.9 °F 30.14 in Calm     93% 0.00 in 0 W/m2
22:19 69 °F 66.9 °F 30.14 in Calm     93% 0.00 in 0 W/m2
22:24 69 °F 66.8 °F 30.14 in Calm     92.7% 0.00 in 0 W/m2
22:29 68.9 °F 66.5 °F 30.14 in Calm     92% 0.00 in 0 W/m2
22:34 68.9 °F 66.5 °F 30.13 in Calm     92% 0.00 in 0 W/m2
22:39 68.9 °F 66.4 °F 30.13 in Calm     92% 0.00 in 0 W/m2
22:44 68.8 °F 66.4 °F 30.13 in Calm     92% 0.00 in 0 W/m2
22:49 68.8 °F 66.4 °F 30.13 in Calm     92% 0.00 in 0 W/m2
22:54 68.7 °F 66.3 °F 30.13 in NNE 0.3 mph 4 mph 92% 0.00 in 0 W/m2
22:59 68.7 °F 66.3 °F 30.13 in Calm   4 mph 92% 0.00 in 0 W/m2
23:04 68.7 °F 66.2 °F 30.12 in Calm   4 mph 92% 0.00 in 0 W/m2
23:09 68.6 °F 66.2 °F 30.12 in NNE 0.1 mph 4 mph 92% 0.00 in 0 W/m2
23:14 68.6 °F 66.2 °F 30.12 in Calm   4 mph 92% 0.00 in 0 W/m2
23:19 68.6 °F 66.2 °F 30.12 in Calm   4 mph 92% 0.00 in 0 W/m2
23:24 68.5 °F 66.1 °F 30.11 in Calm   4 mph 92% 0.00 in 0 W/m2
23:29 68.5 °F 66.1 °F 30.11 in NNE 0.3 mph 4 mph 92% 0.00 in 0 W/m2
23:34 68.5 °F 66 °F 30.11 in NE 1.2 mph 6 mph 92% 0.00 in 0 W/m2
23:39 68.4 °F 66 °F 30.11 in NE 0.3 mph 6 mph 92% 0.00 in 0 W/m2
23:44 68.3 °F 65.9 °F 30.11 in Calm   6 mph 92% 0.00 in 0 W/m2
23:49 68.3 °F 65.8 °F 30.11 in Calm   6 mph 92% 0.00 in 0 W/m2
23:54 68.2 °F 65.8 °F 30.11 in Calm   6 mph 92% 0.00 in 0 W/m2
23:59 68.1 °F 65.7 °F 30.11 in Calm   6 mph 92% 0.00 in 0 W/m2
Hartford County Weather
Compliments of Weather Underground - 4 mb